createdAt,value
2015-09-12T00:00:04.596Z,74077
2015-09-12T00:00:17.034Z,74079
2015-09-12T00:00:29.456Z,74077
2015-09-12T00:00:41.909Z,74083
2015-09-12T00:00:54.301Z,74080
2015-09-12T00:01:06.707Z,74087
2015-09-12T00:01:19.097Z,74081
2015-09-12T00:01:31.488Z,74083
2015-09-12T00:01:43.894Z,74084
2015-09-12T00:01:56.303Z,74085
2015-09-12T00:02:08.693Z,74086
2015-09-12T00:02:21.099Z,74091
2015-09-12T00:02:33.490Z,74081
2015-09-12T00:02:45.912Z,74082
2015-09-12T00:02:58.321Z,74078
2015-09-12T00:03:10.727Z,74076
2015-09-12T00:03:23.149Z,74084
2015-09-12T00:03:35.571Z,74081
2015-09-12T00:03:48.009Z,74082
2015-09-12T00:04:00.432Z,74083
2015-09-12T00:04:12.869Z,74083
2015-09-12T00:04:25.291Z,74084
2015-09-12T00:04:37.728Z,74087
2015-09-12T00:04:50.166Z,74081
2015-09-12T00:05:02.591Z,74088
2015-09-12T00:05:15.013Z,74084
2015-09-12T00:05:27.419Z,74093
2015-09-12T00:05:39.106Z,74083
2015-09-12T00:05:51.513Z,74084
2015-09-12T00:06:03.904Z,74082
2015-09-12T00:06:16.154Z,74077
2015-09-12T00:06:28.576Z,74074
2015-09-12T00:06:40.967Z,74069
2015-09-12T00:06:53.373Z,74068
2015-09-12T00:07:05.829Z,74071
2015-09-12T00:07:17.501Z,74079
2015-09-12T00:07:29.923Z,74069
2015-09-12T00:07:42.329Z,74068
2015-09-12T00:07:54.720Z,74071
2015-09-12T00:08:07.111Z,74073
2015-09-12T00:08:19.518Z,74067
2015-09-12T00:08:31.940Z,74072
2015-09-12T00:08:44.346Z,74077
2015-09-12T00:08:56.752Z,74076
2015-09-12T00:09:09.161Z,74078
2015-09-12T00:09:21.583Z,74073
2015-09-12T00:09:34.005Z,74081
2015-09-12T00:09:46.427Z,74075
2015-09-12T00:09:58.880Z,74073
2015-09-12T00:10:11.272Z,74073
2015-09-12T00:10:23.647Z,74071
2015-09-12T00:10:36.037Z,74074
2015-09-12T00:10:48.412Z,74070
2015-09-12T00:11:00.803Z,74066
2015-09-12T00:11:13.196Z,74062
2015-09-12T00:11:25.602Z,74060
2015-09-12T00:11:38.008Z,74068
2015-09-12T00:11:50.399Z,74071
2015-09-12T00:12:02.789Z,74069
2015-09-12T00:12:15.213Z,74072
2015-09-12T00:12:27.635Z,74068
2015-09-12T00:12:40.041Z,74072
2015-09-12T00:12:52.463Z,74068
2015-09-12T00:13:04.869Z,74061
2015-09-12T00:13:17.310Z,74071
2015-09-12T00:13:29.747Z,74066
2015-09-12T00:13:42.169Z,74066
2015-09-12T00:13:54.622Z,74065
2015-09-12T00:14:07.060Z,74066
2015-09-12T00:14:19.514Z,74068
2015-09-12T00:14:31.936Z,74062
2015-09-12T00:14:44.389Z,74064
2015-09-12T00:14:56.780Z,74058
2015-09-12T00:15:09.170Z,74048
2015-09-12T00:15:21.579Z,74069
2015-09-12T00:15:33.985Z,74071
2015-09-12T00:15:46.375Z,74073
2015-09-12T00:15:58.782Z,74079
2015-09-12T00:16:11.172Z,74073
2015-09-12T00:16:23.565Z,74077
2015-09-12T00:16:35.971Z,74071
2015-09-12T00:16:48.362Z,74071
2015-09-12T00:17:00.768Z,74072
2015-09-12T00:17:13.159Z,74072
2015-09-12T00:17:25.567Z,74078
2015-09-12T00:17:37.958Z,74074
2015-09-12T00:17:50.364Z,74077
2015-09-12T00:18:02.770Z,74075
2015-09-12T00:18:15.176Z,74073
2015-09-12T00:18:27.600Z,74067
2015-09-12T00:18:40.006Z,74071
2015-09-12T00:18:52.413Z,74068
2015-09-12T00:19:04.866Z,74073
2015-09-12T00:19:17.288Z,74071
2015-09-12T00:19:29.712Z,74073
2015-09-12T00:19:42.165Z,74073
2015-09-12T00:19:54.555Z,74074
2015-09-12T00:20:06.962Z,74077
2015-09-12T00:20:19.368Z,74070
2015-09-12T00:20:31.760Z,74068
2015-09-12T00:20:43.448Z,74072
2015-09-12T00:20:55.854Z,74073
2015-09-12T00:21:07.542Z,74078
2015-09-12T00:21:19.932Z,74069
2015-09-12T00:21:32.341Z,74076
2015-09-12T00:21:44.747Z,74072
2015-09-12T00:21:57.153Z,74071
2015-09-12T00:22:09.544Z,74079
2015-09-12T00:22:21.950Z,74073
2015-09-12T00:22:34.358Z,74075
2015-09-12T00:22:46.764Z,74077
2015-09-12T00:22:59.171Z,74069
2015-09-12T00:23:11.577Z,74078
2015-09-12T00:23:23.983Z,74073
2015-09-12T00:23:36.391Z,74080
2015-09-12T00:23:48.813Z,74070
2015-09-12T00:24:01.251Z,74078
2015-09-12T00:24:13.688Z,74072
2015-09-12T00:24:26.126Z,74067
2015-09-12T00:24:38.550Z,74066
2015-09-12T00:24:50.972Z,74070
2015-09-12T00:25:03.253Z,74066
2015-09-12T00:25:15.675Z,74058
2015-09-12T00:25:28.081Z,74057
2015-09-12T00:25:40.474Z,74070
2015-09-12T00:25:52.880Z,74064
2015-09-12T00:26:04.567Z,74072
2015-09-12T00:26:16.974Z,74072
2015-09-12T00:26:29.380Z,74069
2015-09-12T00:26:41.772Z,74066
2015-09-12T00:26:54.179Z,74052
2015-09-12T00:27:06.569Z,74059
2015-09-12T00:27:18.272Z,74060
2015-09-12T00:27:30.694Z,74071
2015-09-12T00:27:43.103Z,74076
2015-09-12T00:27:55.493Z,74070
2015-09-12T00:28:07.899Z,74078
2015-09-12T00:28:20.290Z,74076
2015-09-12T00:28:32.712Z,74082
2015-09-12T00:28:45.120Z,74084
2015-09-12T00:28:57.526Z,74082
2015-09-12T00:29:09.948Z,74088
2015-09-12T00:29:22.198Z,74084
2015-09-12T00:29:34.636Z,74086
2015-09-12T00:29:47.060Z,74080
2015-09-12T00:29:59.482Z,74079
2015-09-12T00:30:11.903Z,74079
2015-09-12T00:30:24.341Z,74076
2015-09-12T00:30:36.075Z,74081
2015-09-12T00:30:48.498Z,74081
2015-09-12T00:31:00.920Z,74081
2015-09-12T00:31:13.373Z,74074
2015-09-12T00:31:25.779Z,74068
2015-09-12T00:31:38.170Z,74067
2015-09-12T00:31:50.579Z,74065
2015-09-12T00:32:02.986Z,74074
2015-09-12T00:32:15.392Z,74064
2015-09-12T00:32:27.798Z,74060
2015-09-12T00:32:40.204Z,74065
2015-09-12T00:32:52.597Z,74070
2015-09-12T00:33:04.988Z,74074
2015-09-12T00:33:17.394Z,74073
2015-09-12T00:33:29.800Z,74069
2015-09-12T00:33:42.191Z,74078
2015-09-12T00:33:54.599Z,74068
2015-09-12T00:34:06.990Z,74083
2015-09-12T00:34:19.396Z,74074
2015-09-12T00:34:31.818Z,74080
2015-09-12T00:34:44.224Z,74076
2015-09-12T00:34:56.648Z,74074
2015-09-12T00:35:09.054Z,74078
2015-09-12T00:35:21.476Z,74066
2015-09-12T00:35:33.898Z,74073
2015-09-12T00:35:46.320Z,74066
2015-09-12T00:35:58.743Z,74066
2015-09-12T00:36:11.180Z,74071
2015-09-12T00:36:23.618Z,74065
2015-09-12T00:36:36.039Z,74069
2015-09-12T00:36:48.477Z,74068
2015-09-12T00:37:00.917Z,74075
2015-09-12T00:37:13.324Z,74064
2015-09-12T00:37:25.714Z,74058
2015-09-12T00:37:38.121Z,74063
2015-09-12T00:37:50.527Z,74058
2015-09-12T00:38:02.919Z,74068
2015-09-12T00:38:15.341Z,74058
2015-09-12T00:38:27.029Z,74062
2015-09-12T00:38:39.419Z,74054
2015-09-12T00:38:51.826Z,74058
2015-09-12T00:39:04.359Z,74061
2015-09-12T00:39:16.765Z,74062
2015-09-12T00:39:29.171Z,74061
2015-09-12T00:39:41.593Z,74058
2015-09-12T00:39:54.015Z,74061
2015-09-12T00:40:06.438Z,74071
2015-09-12T00:40:18.829Z,74067
2015-09-12T00:40:31.235Z,74066
2015-09-12T00:40:43.641Z,74065
2015-09-12T00:40:56.032Z,74065
2015-09-12T00:41:08.425Z,74066
2015-09-12T00:41:20.863Z,74062
2015-09-12T00:41:33.269Z,74063
2015-09-12T00:41:45.675Z,74071
2015-09-12T00:41:58.097Z,74068
2015-09-12T00:42:10.505Z,74062
2015-09-12T00:42:22.926Z,74068
2015-09-12T00:42:35.364Z,74067
2015-09-12T00:42:47.067Z,74080
2015-09-12T00:42:59.505Z,74072
2015-09-12T00:43:11.928Z,74073
2015-09-12T00:43:24.366Z,74077
2015-09-12T00:43:36.803Z,74069
2015-09-12T00:43:49.225Z,74076
2015-09-12T00:44:01.663Z,74067
2015-09-12T00:44:14.072Z,74069
2015-09-12T00:44:26.463Z,74069
2015-09-12T00:44:38.869Z,74073
2015-09-12T00:44:51.275Z,74074
2015-09-12T00:45:03.681Z,74071
2015-09-12T00:45:16.074Z,74063
2015-09-12T00:45:28.465Z,74068
2015-09-12T00:45:40.871Z,74073
2015-09-12T00:45:53.262Z,74069
2015-09-12T00:46:05.668Z,74070
2015-09-12T00:46:18.092Z,74080
2015-09-12T00:46:30.498Z,74076
2015-09-12T00:46:42.904Z,74070
2015-09-12T00:46:55.310Z,74066
2015-09-12T00:47:07.732Z,74067
2015-09-12T00:47:20.172Z,74071
2015-09-12T00:47:32.609Z,74076
2015-09-12T00:47:45.031Z,74075
2015-09-12T00:47:57.469Z,74078
2015-09-12T00:48:09.906Z,74076
2015-09-12T00:48:21.611Z,74072
2015-09-12T00:48:34.049Z,74080
2015-09-12T00:48:46.502Z,74076
2015-09-12T00:48:58.893Z,74072
2015-09-12T00:49:11.283Z,74084
2015-09-12T00:49:23.659Z,74075
2015-09-12T00:49:36.050Z,74081
2015-09-12T00:49:48.425Z,74074
2015-09-12T00:50:00.815Z,74073
2015-09-12T00:50:13.190Z,74071
2015-09-12T00:50:25.615Z,74069
2015-09-12T00:50:38.011Z,74071
2015-09-12T00:50:50.417Z,74071
2015-09-12T00:51:02.823Z,74075
2015-09-12T00:51:15.230Z,74079
2015-09-12T00:51:27.622Z,74071
2015-09-12T00:51:40.028Z,74070
2015-09-12T00:51:52.419Z,74063
2015-09-12T00:52:04.841Z,74071
2015-09-12T00:52:17.247Z,74067
2015-09-12T00:52:29.671Z,74076
2015-09-12T00:52:42.093Z,74081
2015-09-12T00:52:54.515Z,74077
2015-09-12T00:53:06.937Z,74072
2015-09-12T00:53:19.359Z,74077
2015-09-12T00:53:31.781Z,74078
2015-09-12T00:53:44.203Z,74072
2015-09-12T00:53:56.641Z,74073
2015-09-12T00:54:09.078Z,74074
2015-09-12T00:54:21.500Z,74073
2015-09-12T00:54:33.941Z,74077
2015-09-12T00:54:46.378Z,74070
2015-09-12T00:54:58.753Z,74075
2015-09-12T00:55:11.175Z,74063
2015-09-12T00:55:23.581Z,74073
2015-09-12T00:55:35.973Z,74073
2015-09-12T00:55:48.379Z,74068
2015-09-12T00:56:00.785Z,74073
2015-09-12T00:56:13.176Z,74067
2015-09-12T00:56:25.582Z,74072
2015-09-12T00:56:37.992Z,74059
2015-09-12T00:56:50.398Z,74058
2015-09-12T00:57:02.804Z,74056
2015-09-12T00:57:15.195Z,74058
2015-09-12T00:57:27.585Z,74064
2015-09-12T00:57:39.994Z,74058
2015-09-12T00:57:52.400Z,74065
2015-09-12T00:58:04.806Z,74066
2015-09-12T00:58:17.228Z,74068
2015-09-12T00:58:29.634Z,74077
2015-09-12T00:58:42.057Z,74082
2015-09-12T00:58:54.495Z,74084
2015-09-12T00:59:06.916Z,74079
2015-09-12T00:59:19.338Z,74079
2015-09-12T00:59:31.760Z,74081
2015-09-12T00:59:44.215Z,74083
2015-09-12T00:59:56.653Z,74079
2015-09-12T01:00:09.075Z,74078
2015-09-12T01:00:21.340Z,74080
2015-09-12T01:00:33.793Z,74067
2015-09-12T01:00:46.202Z,74069
2015-09-12T01:00:58.592Z,74064
2015-09-12T01:01:10.999Z,74069
2015-09-12T01:01:23.389Z,74064
2015-09-12T01:01:35.795Z,74073
2015-09-12T01:01:48.205Z,74065
2015-09-12T01:02:00.595Z,74077
2015-09-12T01:02:13.002Z,74070
2015-09-12T01:02:25.392Z,74083
2015-09-12T01:02:37.814Z,74075
2015-09-12T01:02:50.207Z,74070
2015-09-12T01:03:02.597Z,74080
2015-09-12T01:03:15.004Z,74071
2015-09-12T01:03:27.394Z,74074
2015-09-12T01:03:39.816Z,74071
2015-09-12T01:03:52.209Z,74070
2015-09-12T01:04:04.631Z,74079
2015-09-12T01:04:17.037Z,74076
2015-09-12T01:04:29.443Z,74077
2015-09-12T01:04:41.865Z,74074
2015-09-12T01:04:54.288Z,74083
2015-09-12T01:05:06.710Z,74077
2015-09-12T01:05:19.147Z,74079
2015-09-12T01:05:31.585Z,74072
2015-09-12T01:05:44.022Z,74083
2015-09-12T01:05:56.462Z,74081
2015-09-12T01:06:08.884Z,74082
2015-09-12T01:06:21.305Z,74071
2015-09-12T01:06:33.712Z,74084
2015-09-12T01:06:45.399Z,74077
2015-09-12T01:06:57.807Z,74079
2015-09-12T01:07:10.198Z,74079
2015-09-12T01:07:22.604Z,74073
2015-09-12T01:07:35.026Z,74080
2015-09-12T01:07:47.417Z,74077
2015-09-12T01:07:59.809Z,74078
2015-09-12T01:08:12.216Z,74069
2015-09-12T01:08:24.622Z,74074
2015-09-12T01:08:37.013Z,74077
2015-09-12T01:08:49.419Z,74087
2015-09-12T01:09:01.811Z,74084
2015-09-12T01:09:14.202Z,74081
2015-09-12T01:09:26.624Z,74074
2015-09-12T01:09:39.030Z,74067
2015-09-12T01:09:51.452Z,74067
2015-09-12T01:10:03.876Z,74068
2015-09-12T01:10:16.282Z,74080
2015-09-12T01:10:28.720Z,74072
2015-09-12T01:10:41.142Z,74070
2015-09-12T01:10:53.563Z,74073
2015-09-12T01:11:05.987Z,74068
2015-09-12T01:11:18.425Z,74075
2015-09-12T01:11:30.862Z,74069
2015-09-12T01:11:43.284Z,74078
2015-09-12T01:11:55.706Z,74064
2015-09-12T01:12:08.083Z,74064
2015-09-12T01:12:20.489Z,74058
2015-09-12T01:12:32.896Z,74070
2015-09-12T01:12:45.286Z,74067
2015-09-12T01:12:57.692Z,74065
2015-09-12T01:13:10.085Z,74071
2015-09-12T01:13:22.491Z,74068
2015-09-12T01:13:34.757Z,74068
2015-09-12T01:13:47.148Z,74067
2015-09-12T01:13:59.569Z,74063
2015-09-12T01:14:11.962Z,74069
2015-09-12T01:14:24.353Z,74076
2015-09-12T01:14:36.759Z,74076
2015-09-12T01:14:49.150Z,74078
2015-09-12T01:15:01.571Z,74073
2015-09-12T01:15:13.980Z,74076
2015-09-12T01:15:26.386Z,74083
2015-09-12T01:15:38.808Z,74068
2015-09-12T01:15:51.245Z,74075
2015-09-12T01:16:03.683Z,74070
2015-09-12T01:16:16.107Z,74072
2015-09-12T01:16:28.529Z,74073
2015-09-12T01:16:40.950Z,74080
2015-09-12T01:16:53.388Z,74078
2015-09-12T01:17:05.794Z,74077
2015-09-12T01:17:17.484Z,74076
2015-09-12T01:17:29.890Z,74072
2015-09-12T01:17:42.281Z,74074
2015-09-12T01:17:54.671Z,74073
2015-09-12T01:18:07.077Z,74071
2015-09-12T01:18:19.470Z,74074
2015-09-12T01:18:31.876Z,74072
2015-09-12T01:18:44.283Z,74072
2015-09-12T01:18:56.689Z,74071
2015-09-12T01:19:09.079Z,74070
2015-09-12T01:19:21.488Z,74070
2015-09-12T01:19:33.894Z,74066
2015-09-12T01:19:46.300Z,74074
2015-09-12T01:19:58.706Z,74068
2015-09-12T01:20:11.097Z,74074
2015-09-12T01:20:23.521Z,74068
2015-09-12T01:20:35.943Z,74069
2015-09-12T01:20:48.349Z,74072
2015-09-12T01:21:00.755Z,74075
2015-09-12T01:21:13.177Z,74077
2015-09-12T01:21:25.617Z,74073
2015-09-12T01:21:38.039Z,74070
2015-09-12T01:21:50.445Z,74074
2015-09-12T01:22:02.835Z,74071
2015-09-12T01:22:15.226Z,74070
2015-09-12T01:22:27.634Z,74072
2015-09-12T01:22:40.025Z,74073
2015-09-12T01:22:52.431Z,74072
2015-09-12T01:23:04.837Z,74074
2015-09-12T01:23:17.228Z,74073
2015-09-12T01:23:29.636Z,74073
2015-09-12T01:23:42.043Z,74075
2015-09-12T01:23:54.449Z,74067
2015-09-12T01:24:06.855Z,74073
2015-09-12T01:24:19.277Z,74073
2015-09-12T01:24:31.685Z,74070
2015-09-12T01:24:44.107Z,74070
2015-09-12T01:24:56.529Z,74070
2015-09-12T01:25:08.951Z,74071
2015-09-12T01:25:21.388Z,74066
2015-09-12T01:25:33.828Z,74064
2015-09-12T01:25:46.250Z,74062
2015-09-12T01:25:58.687Z,74062
2015-09-12T01:26:11.140Z,74075
2015-09-12T01:26:23.578Z,74070
2015-09-12T01:26:36.017Z,74071
2015-09-12T01:26:48.408Z,74070
2015-09-12T01:27:00.799Z,74064
2015-09-12T01:27:13.189Z,74073
2015-09-12T01:27:25.595Z,74071
2015-09-12T01:27:37.988Z,74071
2015-09-12T01:27:50.379Z,74061
2015-09-12T01:28:02.754Z,74059
2015-09-12T01:28:15.144Z,74074
2015-09-12T01:28:27.535Z,74078
2015-09-12T01:28:39.959Z,74084
2015-09-12T01:28:52.349Z,74075
2015-09-12T01:29:04.756Z,74069
2015-09-12T01:29:17.146Z,74068
2015-09-12T01:29:29.732Z,74062
2015-09-12T01:29:42.156Z,74065
2015-09-12T01:29:54.953Z,74060
2015-09-12T01:30:07.390Z,74057
2015-09-12T01:30:19.344Z,74052
2015-09-12T01:30:31.672Z,74055
2015-09-12T01:30:43.846Z,74061
2015-09-12T01:30:58.299Z,74065
2015-09-12T01:31:11.221Z,74066
2015-09-12T01:31:24.002Z,74069
2015-09-12T01:31:36.767Z,74074
2015-09-12T01:31:49.472Z,74077
2015-09-12T01:32:02.237Z,74090
2015-09-12T01:32:20.472Z,74085
2015-09-12T01:32:33.034Z,74078
2015-09-12T01:32:46.867Z,74080
2015-09-12T01:33:01.680Z,74078
2015-09-12T01:33:14.367Z,74076
2015-09-12T01:33:26.914Z,74076
2015-09-12T01:33:39.508Z,74072
2015-09-12T01:33:51.963Z,74075
2015-09-12T01:34:04.541Z,74078
2015-09-12T01:34:17.275Z,74073
2015-09-12T01:34:29.932Z,74074
2015-09-12T01:34:43.494Z,74071
2015-09-12T01:34:56.324Z,74076
2015-09-12T01:35:09.106Z,74077
2015-09-12T01:35:21.668Z,74076
2015-09-12T01:35:34.356Z,74074
2015-09-12T01:35:47.201Z,74075
2015-09-12T01:35:59.639Z,74077
2015-09-12T01:36:12.092Z,74075
2015-09-12T01:36:24.545Z,74064
2015-09-12T01:36:36.998Z,74072
2015-09-12T01:36:49.594Z,74067
2015-09-12T01:37:02.063Z,74066
2015-09-12T01:37:14.578Z,74066
2015-09-12T01:37:26.973Z,74068
2015-09-12T01:37:38.660Z,74073
2015-09-12T01:37:51.068Z,74082
2015-09-12T01:38:03.458Z,74072
2015-09-12T01:38:15.864Z,74076
2015-09-12T01:38:28.286Z,74072
2015-09-12T01:38:40.708Z,74073
2015-09-12T01:38:53.102Z,74070
2015-09-12T01:39:05.492Z,74075
2015-09-12T01:39:17.883Z,74072
2015-09-12T01:39:30.305Z,74074
2015-09-12T01:39:42.696Z,74072
2015-09-12T01:39:55.104Z,74073
2015-09-12T01:40:07.494Z,74073
2015-09-12T01:40:19.885Z,74066
2015-09-12T01:40:32.338Z,74065
2015-09-12T01:40:44.744Z,74060
2015-09-12T01:40:57.153Z,74061
2015-09-12T01:41:09.559Z,74069
2015-09-12T01:41:21.981Z,74066
2015-09-12T01:41:34.403Z,74068
2015-09-12T01:41:46.700Z,74065
2015-09-12T01:41:59.167Z,74062
2015-09-12T01:42:11.574Z,74059
2015-09-12T01:42:23.964Z,74059
2015-09-12T01:42:36.355Z,74060
2015-09-12T01:42:48.792Z,74060
2015-09-12T01:43:01.201Z,74061
2015-09-12T01:43:13.607Z,74067
2015-09-12T01:43:25.873Z,74061
2015-09-12T01:43:38.279Z,74063
2015-09-12T01:43:50.669Z,74064
2015-09-12T01:44:02.390Z,74061
2015-09-12T01:44:14.812Z,74062
2015-09-12T01:44:27.250Z,74062
2015-09-12T01:44:39.671Z,74065
2015-09-12T01:44:52.078Z,74063
2015-09-12T01:45:04.503Z,74073
2015-09-12T01:45:16.956Z,74079
2015-09-12T01:45:29.268Z,74078
2015-09-12T01:45:41.706Z,74073
2015-09-12T01:45:54.159Z,74073
2015-09-12T01:46:06.598Z,74075
2015-09-12T01:46:19.036Z,74073
2015-09-12T01:46:31.458Z,74076
2015-09-12T01:46:43.895Z,74076
2015-09-12T01:46:56.286Z,74077
2015-09-12T01:47:08.677Z,74077
2015-09-12T01:47:21.084Z,74081
2015-09-12T01:47:33.490Z,74078
2015-09-12T01:47:45.896Z,74073
2015-09-12T01:47:58.302Z,74072
2015-09-12T01:48:10.695Z,74071
2015-09-12T01:48:23.101Z,74073
2015-09-12T01:48:35.508Z,74071
2015-09-12T01:48:47.914Z,74070
2015-09-12T01:49:00.320Z,74068
2015-09-12T01:49:13.229Z,74068
2015-09-12T01:49:25.636Z,74071
2015-09-12T01:49:38.042Z,74070
2015-09-12T01:49:50.448Z,74072
2015-09-12T01:50:02.854Z,74076
2015-09-12T01:50:15.277Z,74073
2015-09-12T01:50:27.699Z,74063
2015-09-12T01:50:40.137Z,74069
2015-09-12T01:50:52.527Z,74069
2015-09-12T01:51:04.902Z,74072
2015-09-12T01:51:17.218Z,74072
2015-09-12T01:51:29.702Z,74073
2015-09-12T01:51:41.874Z,74065
2015-09-12T01:51:54.390Z,74064
2015-09-12T01:52:06.671Z,74065
2015-09-12T01:52:19.000Z,74066
2015-09-12T01:52:31.500Z,74068
2015-09-12T01:52:44.906Z,74072
2015-09-12T01:52:57.217Z,74077
2015-09-12T01:53:09.623Z,74078
2015-09-12T01:53:22.032Z,74067
2015-09-12T01:53:34.423Z,74067
2015-09-12T01:53:46.813Z,74068
2015-09-12T01:53:59.220Z,74072
2015-09-12T01:54:11.626Z,74069
2015-09-12T01:54:24.019Z,74076
2015-09-12T01:54:36.425Z,74072
2015-09-12T01:54:48.836Z,74074
2015-09-12T01:55:01.227Z,74066
2015-09-12T01:55:13.617Z,74065
2015-09-12T01:55:26.024Z,74062
2015-09-12T01:55:38.431Z,74057
2015-09-12T01:55:50.837Z,74058
2015-09-12T01:56:03.243Z,74064
2015-09-12T01:56:14.962Z,74076
2015-09-12T01:56:27.371Z,74077
2015-09-12T01:56:39.793Z,74080
2015-09-12T01:56:52.231Z,74081
2015-09-12T01:57:04.652Z,74081
2015-09-12T01:57:17.106Z,74085
2015-09-12T01:57:29.497Z,74088
2015-09-12T01:57:41.903Z,74088
2015-09-12T01:57:54.294Z,74084
2015-09-12T01:58:06.716Z,74080
2015-09-12T01:58:19.107Z,74080
2015-09-12T01:58:31.546Z,74074
2015-09-12T01:58:43.952Z,74072
2015-09-12T01:58:56.343Z,74074
2015-09-12T01:59:08.749Z,74074
2015-09-12T01:59:21.155Z,74075
2015-09-12T01:59:33.595Z,74078
2015-09-12T01:59:46.001Z,74075
2015-09-12T01:59:58.423Z,74075
2015-09-12T02:00:10.829Z,74070
2015-09-12T02:00:23.267Z,74072
2015-09-12T02:00:35.691Z,74078
2015-09-12T02:00:48.128Z,74075
2015-09-12T02:01:00.581Z,74076
2015-09-12T02:01:13.003Z,74069
2015-09-12T02:01:25.456Z,74072
2015-09-12T02:01:37.911Z,74068
2015-09-12T02:01:50.333Z,74072
2015-09-12T02:02:02.771Z,74065
2015-09-12T02:02:15.161Z,74072
2015-09-12T02:02:27.552Z,74071
2015-09-12T02:02:39.976Z,74072
2015-09-12T02:02:52.367Z,74077
2015-09-12T02:03:04.773Z,74076
2015-09-12T02:03:17.179Z,74079
2015-09-12T02:03:29.570Z,74072
2015-09-12T02:03:41.963Z,74067
2015-09-12T02:03:54.370Z,74073
2015-09-12T02:04:06.776Z,74073
2015-09-12T02:04:19.182Z,74073
2015-09-12T02:04:31.557Z,74079
2015-09-12T02:04:43.964Z,74084
2015-09-12T02:04:56.371Z,74081
2015-09-12T02:05:08.792Z,74079
2015-09-12T02:05:21.214Z,74079
2015-09-12T02:05:33.621Z,74079
2015-09-12T02:05:46.029Z,74083
2015-09-12T02:05:58.435Z,74081
2015-09-12T02:06:10.841Z,74083
2015-09-12T02:06:23.263Z,74086
2015-09-12T02:06:35.685Z,74086
2015-09-12T02:06:48.109Z,74084
2015-09-12T02:07:00.531Z,74081
2015-09-12T02:07:12.812Z,74083
2015-09-12T02:07:25.250Z,74085
2015-09-12T02:07:37.703Z,74086
2015-09-12T02:07:50.127Z,74081
2015-09-12T02:08:02.517Z,74079
2015-09-12T02:08:14.908Z,74082
2015-09-12T02:08:27.220Z,74080
2015-09-12T02:08:39.627Z,74086
2015-09-12T02:08:52.050Z,74085
2015-09-12T02:09:04.457Z,74094
2015-09-12T02:09:16.863Z,74094
2015-09-12T02:09:29.269Z,74087
2015-09-12T02:09:41.738Z,74083
2015-09-12T02:09:54.162Z,74084
2015-09-12T02:10:06.584Z,74084
2015-09-12T02:10:19.006Z,74088
2015-09-12T02:10:31.443Z,74088
2015-09-12T02:10:43.881Z,74091
2015-09-12T02:10:56.320Z,74090
2015-09-12T02:11:08.039Z,74091
2015-09-12T02:11:20.461Z,74084
2015-09-12T02:11:32.867Z,74095
2015-09-12T02:11:45.258Z,74090
2015-09-12T02:11:57.650Z,74096
2015-09-12T02:12:10.056Z,74094
2015-09-12T02:12:22.447Z,74090
2015-09-12T02:12:34.869Z,74091
2015-09-12T02:12:47.260Z,74089
2015-09-12T02:12:59.668Z,74089
2015-09-12T02:13:12.058Z,74087
2015-09-12T02:13:24.465Z,74080
2015-09-12T02:13:36.871Z,74082
2015-09-12T02:13:49.262Z,74089
2015-09-12T02:14:01.654Z,74082
2015-09-12T02:14:13.342Z,74081
2015-09-12T02:14:25.779Z,74083
2015-09-12T02:14:38.185Z,74082
2015-09-12T02:14:50.592Z,74080
2015-09-12T02:15:03.000Z,74082
2015-09-12T02:15:15.422Z,74085
2015-09-12T02:15:27.859Z,74086
2015-09-12T02:15:40.297Z,74082
2015-09-12T02:15:52.719Z,74085
2015-09-12T02:16:05.174Z,74085
2015-09-12T02:16:17.596Z,74085
2015-09-12T02:16:30.049Z,74085
2015-09-12T02:16:42.471Z,74089
2015-09-12T02:16:54.908Z,74084
2015-09-12T02:17:06.645Z,74082
2015-09-12T02:17:19.051Z,74082
2015-09-12T02:17:31.441Z,74087
2015-09-12T02:17:43.832Z,74083
2015-09-12T02:17:56.270Z,74090
2015-09-12T02:18:08.662Z,74084
2015-09-12T02:18:21.084Z,74084
2015-09-12T02:18:33.490Z,74079
2015-09-12T02:18:45.897Z,74077
2015-09-12T02:18:58.303Z,74078
2015-09-12T02:19:10.727Z,74086
2015-09-12T02:19:23.117Z,74088
2015-09-12T02:19:35.524Z,74084
2015-09-12T02:19:47.914Z,74085
2015-09-12T02:20:00.320Z,74079
2015-09-12T02:20:12.713Z,74077
2015-09-12T02:20:25.151Z,74076
2015-09-12T02:20:37.557Z,74076
2015-09-12T02:20:49.963Z,74077
2015-09-12T02:21:02.385Z,74076
2015-09-12T02:21:14.793Z,74077
2015-09-12T02:21:27.246Z,74076
2015-09-12T02:21:39.684Z,74076
2015-09-12T02:21:52.106Z,74077
2015-09-12T02:22:04.543Z,74073
2015-09-12T02:22:16.983Z,74072
2015-09-12T02:22:29.436Z,74069
2015-09-12T02:22:41.858Z,74073
2015-09-12T02:22:54.280Z,74075
2015-09-12T02:23:06.670Z,74078
2015-09-12T02:23:19.062Z,74081
2015-09-12T02:23:31.468Z,74079
2015-09-12T02:23:43.874Z,74085
2015-09-12T02:23:56.281Z,74079
2015-09-12T02:24:08.687Z,74078
2015-09-12T02:24:21.096Z,74074
2015-09-12T02:24:33.487Z,74073
2015-09-12T02:24:45.893Z,74070
2015-09-12T02:24:58.299Z,74072
2015-09-12T02:25:10.705Z,74070
2015-09-12T02:25:23.098Z,74072
2015-09-12T02:25:35.504Z,74075
2015-09-12T02:25:47.895Z,74072
2015-09-12T02:26:00.301Z,74073
2015-09-12T02:26:12.707Z,74075
2015-09-12T02:26:25.116Z,74074
2015-09-12T02:26:37.522Z,74076
2015-09-12T02:26:49.944Z,74073
2015-09-12T02:27:02.366Z,74075
2015-09-12T02:27:14.788Z,74074
2015-09-12T02:27:27.226Z,74076
2015-09-12T02:27:39.664Z,74077
2015-09-12T02:27:52.085Z,74078
2015-09-12T02:28:04.507Z,74074
2015-09-12T02:28:16.945Z,74080
2015-09-12T02:28:29.337Z,74080
2015-09-12T02:28:41.728Z,74081
2015-09-12T02:28:54.134Z,74082
2015-09-12T02:29:06.525Z,74080
2015-09-12T02:29:18.791Z,74081
2015-09-12T02:29:31.200Z,74085
2015-09-12T02:29:43.590Z,74084
2015-09-12T02:29:55.872Z,74086
2015-09-12T02:30:08.278Z,74088
2015-09-12T02:30:20.700Z,74087
2015-09-12T02:30:33.092Z,74082
2015-09-12T02:30:45.499Z,74086
2015-09-12T02:30:57.889Z,74075
2015-09-12T02:31:10.296Z,74079
2015-09-12T02:31:22.717Z,74077
2015-09-12T02:31:35.126Z,74078
2015-09-12T02:31:47.532Z,74078
2015-09-12T02:31:59.938Z,74080
2015-09-12T02:32:12.360Z,74079
2015-09-12T02:32:24.798Z,74080
2015-09-12T02:32:37.221Z,74079
2015-09-12T02:32:49.659Z,74089
2015-09-12T02:33:02.081Z,74087
2015-09-12T02:33:14.518Z,74083
2015-09-12T02:33:26.956Z,74080
2015-09-12T02:33:39.380Z,74087
2015-09-12T02:33:51.833Z,74098
2015-09-12T02:34:04.255Z,74096
2015-09-12T02:34:16.661Z,74099
2015-09-12T02:34:29.067Z,74094
2015-09-12T02:34:41.460Z,74093
2015-09-12T02:34:53.850Z,74084
2015-09-12T02:35:06.257Z,74080
2015-09-12T02:35:18.663Z,74083
2015-09-12T02:35:31.054Z,74076
2015-09-12T02:35:43.462Z,74084
2015-09-12T02:35:55.852Z,74086
2015-09-12T02:36:08.259Z,74087
2015-09-12T02:36:20.665Z,74092
2015-09-12T02:36:33.056Z,74092
2015-09-12T02:36:45.448Z,74092
2015-09-12T02:36:57.854Z,74085
2015-09-12T02:37:10.261Z,74088
2015-09-12T02:37:22.698Z,74086
2015-09-12T02:37:35.104Z,74088
2015-09-12T02:37:47.512Z,74085
2015-09-12T02:37:59.918Z,74083
2015-09-12T02:38:12.340Z,74083
2015-09-12T02:38:24.777Z,74086
2015-09-12T02:38:37.246Z,74079
2015-09-12T02:38:49.640Z,74076
2015-09-12T02:39:02.046Z,74079
2015-09-12T02:39:14.437Z,74074
2015-09-12T02:39:26.843Z,74075
2015-09-12T02:39:39.233Z,74084
2015-09-12T02:39:51.641Z,74088